sensor_id;sensor_type;location;lat;lon;timestamp;pressure;altitude;pressure_sealevel;temperature;humidity
19831;BME280;10076;52.008;4.708;2022-11-14T00:00:35;101571.22;;;10.30;100.00
19831;BME280;10076;52.008;4.708;2022-11-14T00:03:04;101574.44;;;10.34;100.00
19831;BME280;10076;52.008;4.708;2022-11-14T00:05:30;101581.19;;;10.25;100.00
19831;BME280;10076;52.008;4.708;2022-11-14T00:07:55;101573.28;;;10.25;100.00
19831;BME280;10076;52.008;4.708;2022-11-14T00:10:21;101570.25;;;10.17;100.00
19831;BME280;10076;52.008;4.708;2022-11-14T00:12:46;101570.28;;;10.31;100.00
19831;BME280;10076;52.008;4.708;2022-11-14T00:15:12;101570.38;;;10.29;100.00
19831;BME280;10076;52.008;4.708;2022-11-14T00:17:38;101579.91;;;10.32;100.00
19831;BME280;10076;52.008;4.708;2022-11-14T00:20:05;101577.75;;;10.38;100.00
19831;BME280;10076;52.008;4.708;2022-11-14T00:22:31;101565.63;;;10.20;100.00
19831;BME280;10076;52.008;4.708;2022-11-14T00:24:56;101568.25;;;10.20;100.00
19831;BME280;10076;52.008;4.708;2022-11-14T00:27:21;101567.78;;;10.14;100.00
19831;BME280;10076;52.008;4.708;2022-11-14T00:29:46;101564.91;;;10.03;100.00
19831;BME280;10076;52.008;4.708;2022-11-14T00:32:12;101566.66;;;10.02;100.00
19831;BME280;10076;52.008;4.708;2022-11-14T00:34:37;101561.69;;;9.98;100.00
19831;BME280;10076;52.008;4.708;2022-11-14T00:37:02;101558.41;;;9.93;100.00
19831;BME280;10076;52.008;4.708;2022-11-14T00:39:28;101551.34;;;9.78;100.00
19831;BME280;10076;52.008;4.708;2022-11-14T00:41:53;101550.16;;;9.83;100.00
19831;BME280;10076;52.008;4.708;2022-11-14T00:44:18;101543.53;;;9.76;100.00
19831;BME280;10076;52.008;4.708;2022-11-14T00:46:44;101539.72;;;9.66;100.00
19831;BME280;10076;52.008;4.708;2022-11-14T00:49:09;101545.72;;;9.84;100.00
19831;BME280;10076;52.008;4.708;2022-11-14T00:51:35;101553.25;;;9.76;100.00
19831;BME280;10076;52.008;4.708;2022-11-14T00:54:00;101549.06;;;9.72;100.00
19831;BME280;10076;52.008;4.708;2022-11-14T00:56:25;101544.22;;;9.80;100.00
19831;BME280;10076;52.008;4.708;2022-11-14T00:58:51;101544.47;;;9.75;100.00
19831;BME280;10076;52.008;4.708;2022-11-14T01:01:16;101544.22;;;9.80;100.00
19831;BME280;10076;52.008;4.708;2022-11-14T01:03:41;101533.41;;;9.69;100.00
19831;BME280;10076;52.008;4.708;2022-11-14T01:06:09;101537.22;;;9.63;100.00
19831;BME280;10076;52.008;4.708;2022-11-14T01:08:35;101530.78;;;9.69;100.00
19831;BME280;10076;52.008;4.708;2022-11-14T01:11:07;101525.22;;;9.73;100.00
19831;BME280;10076;52.008;4.708;2022-11-14T01:13:33;101521.16;;;9.68;100.00
19831;BME280;10076;52.008;4.708;2022-11-14T01:15:59;101528.47;;;9.63;100.00
19831;BME280;10076;52.008;4.708;2022-11-14T01:18:25;101516.31;;;9.61;100.00
19831;BME280;10076;52.008;4.708;2022-11-14T01:20:50;101513.84;;;9.42;100.00
19831;BME280;10076;52.008;4.708;2022-11-14T01:23:16;101520.22;;;9.54;100.00
19831;BME280;10076;52.008;4.708;2022-11-14T01:25:42;101515.44;;;9.45;100.00
19831;BME280;10076;52.008;4.708;2022-11-14T01:28:13;101516.31;;;9.30;100.00
19831;BME280;10076;52.008;4.708;2022-11-14T01:30:39;101519.88;;;9.29;100.00
19831;BME280;10076;52.008;4.708;2022-11-14T01:33:05;101512.56;;;9.49;100.00
19831;BME280;10076;52.008;4.708;2022-11-14T01:35:32;101511.81;;;9.32;100.00
19831;BME280;10076;52.008;4.708;2022-11-14T01:37:57;101502.59;;;9.39;100.00
19831;BME280;10076;52.008;4.708;2022-11-14T01:40:23;101499.97;;;9.23;100.00
19831;BME280;10076;52.008;4.708;2022-11-14T01:48:43;101482.13;;;9.28;100.00
19831;BME280;10076;52.008;4.708;2022-11-14T01:51:38;101487.47;;;9.11;100.00
19831;BME280;10076;52.008;4.708;2022-11-14T01:54:07;101487.03;;;9.03;100.00
19831;BME280;10076;52.008;4.708;2022-11-14T01:56:43;101471.06;;;9.06;100.00
19831;BME280;10076;52.008;4.708;2022-11-14T01:59:14;101478.97;;;9.06;100.00
19831;BME280;10076;52.008;4.708;2022-11-14T02:01:48;101470.91;;;9.09;100.00
19831;BME280;10076;52.008;4.708;2022-11-14T02:04:20;101463.06;;;8.93;100.00
19831;BME280;10076;52.008;4.708;2022-11-14T02:06:47;101459.16;;;9.30;100.00
19831;BME280;10076;52.008;4.708;2022-11-14T02:09:14;101450.16;;;9.19;100.00
19831;BME280;10076;52.008;4.708;2022-11-14T02:11:43;101455.34;;;9.20;100.00
19831;BME280;10076;52.008;4.708;2022-11-14T02:14:09;101452.34;;;8.95;100.00
19831;BME280;10076;52.008;4.708;2022-11-14T02:16:34;101445.78;;;8.87;100.00
19831;BME280;10076;52.008;4.708;2022-11-14T02:19:00;101438.66;;;8.89;100.00
19831;BME280;10076;52.008;4.708;2022-11-14T02:21:25;101435.16;;;8.73;100.00
19831;BME280;10076;52.008;4.708;2022-11-14T02:23:51;101433.13;;;8.78;100.00
19831;BME280;10076;52.008;4.708;2022-11-14T02:26:18;101422.19;;;8.53;100.00
19831;BME280;10076;52.008;4.708;2022-11-14T02:28:44;101430.00;;;8.72;100.00
19831;BME280;10076;52.008;4.708;2022-11-14T02:31:09;101427.78;;;8.80;100.00
19831;BME280;10076;52.008;4.708;2022-11-14T02:33:35;101420.81;;;8.79;100.00
19831;BME280;10076;52.008;4.708;2022-11-14T02:36:00;101412.56;;;8.85;100.00
19831;BME280;10076;52.008;4.708;2022-11-14T02:38:25;101422.03;;;8.89;100.00
19831;BME280;10076;52.008;4.708;2022-11-14T02:40:50;101409.50;;;8.61;100.00
19831;BME280;10076;52.008;4.708;2022-11-14T02:43:16;101412.97;;;8.62;100.00
19831;BME280;10076;52.008;4.708;2022-11-14T02:45:41;101409.72;;;8.57;100.00
19831;BME280;10076;52.008;4.708;2022-11-14T02:48:06;101415.50;;;8.48;100.00
19831;BME280;10076;52.008;4.708;2022-11-14T02:50:32;101409.13;;;8.52;100.00
19831;BME280;10076;52.008;4.708;2022-11-14T02:52:57;101410.75;;;8.54;100.00
19831;BME280;10076;52.008;4.708;2022-11-14T02:55:22;101416.25;;;8.50;100.00
19831;BME280;10076;52.008;4.708;2022-11-14T02:57:47;101409.47;;;8.29;100.00
19831;BME280;10076;52.008;4.708;2022-11-14T03:00:13;101404.81;;;8.34;100.00
19831;BME280;10076;52.008;4.708;2022-11-14T03:02:38;101401.41;;;8.32;100.00
19831;BME280;10076;52.008;4.708;2022-11-14T03:05:04;101405.44;;;8.39;100.00
19831;BME280;10076;52.008;4.708;2022-11-14T03:07:29;101401.50;;;8.30;100.00
19831;BME280;10076;52.008;4.708;2022-11-14T03:09:55;101392.53;;;8.34;100.00
19831;BME280;10076;52.008;4.708;2022-11-14T03:12:20;101396.97;;;8.17;100.00
19831;BME280;10076;52.008;4.708;2022-11-14T03:14:46;101386.91;;;8.25;100.00
19831;BME280;10076;52.008;4.708;2022-11-14T03:17:11;101377.91;;;8.29;100.00
19831;BME280;10076;52.008;4.708;2022-11-14T03:19:36;101382.72;;;8.21;100.00
19831;BME280;10076;52.008;4.708;2022-11-14T03:22:03;101384.00;;;8.14;100.00
19831;BME280;10076;52.008;4.708;2022-11-14T03:24:28;101379.66;;;7.96;100.00
19831;BME280;10076;52.008;4.708;2022-11-14T03:26:54;101378.22;;;8.06;100.00
19831;BME280;10076;52.008;4.708;2022-11-14T03:29:19;101375.00;;;8.18;100.00
19831;BME280;10076;52.008;4.708;2022-11-14T03:31:45;101371.59;;;8.16;100.00
19831;BME280;10076;52.008;4.708;2022-11-14T03:34:10;101372.56;;;8.14;100.00
19831;BME280;10076;52.008;4.708;2022-11-14T03:36:36;101380.94;;;8.05;100.00
19831;BME280;10076;52.008;4.708;2022-11-14T03:39:02;101381.03;;;7.86;100.00
19831;BME280;10076;52.008;4.708;2022-11-14T03:41:28;101384.13;;;7.94;100.00
19831;BME280;10076;52.008;4.708;2022-11-14T03:43:53;101378.88;;;7.77;100.00
19831;BME280;10076;52.008;4.708;2022-11-14T03:46:19;101380.66;;;7.77;100.00
19831;BME280;10076;52.008;4.708;2022-11-14T03:48:44;101380.66;;;7.77;100.00
19831;BME280;10076;52.008;4.708;2022-11-14T03:51:09;101385.97;;;7.92;100.00
19831;BME280;10076;52.008;4.708;2022-11-14T03:53:35;101386.13;;;7.89;100.00
19831;BME280;10076;52.008;4.708;2022-11-14T03:56:00;101384.13;;;7.77;100.00
19831;BME280;10076;52.008;4.708;2022-11-14T03:58:25;101377.47;;;7.70;100.00
19831;BME280;10076;52.008;4.708;2022-11-14T04:00:50;101377.88;;;7.80;100.00
19831;BME280;10076;52.008;4.708;2022-11-14T04:03:16;101382.50;;;7.75;100.00
19831;BME280;10076;52.008;4.708;2022-11-14T04:05:45;101376.47;;;7.73;100.00
19831;BME280;10076;52.008;4.708;2022-11-14T04:08:10;101371.75;;;7.79;100.00
19831;BME280;10076;52.008;4.708;2022-11-14T04:10:35;101362.63;;;7.69;100.00
19831;BME280;10076;52.008;4.708;2022-11-14T04:13:03;101365.03;;;7.57;100.00
19831;BME280;10076;52.008;4.708;2022-11-14T04:15:28;101368.50;;;7.57;100.00
19831;BME280;10076;52.008;4.708;2022-11-14T04:17:53;101365.88;;;7.57;100.00
19831;BME280;10076;52.008;4.708;2022-11-14T04:20:19;101364.94;;;7.58;100.00
19831;BME280;10076;52.008;4.708;2022-11-14T04:22:45;101352.28;;;7.66;100.00
19831;BME280;10076;52.008;4.708;2022-11-14T04:25:10;101358.06;;;7.56;100.00
19831;BME280;10076;52.008;4.708;2022-11-14T04:27:36;101356.75;;;7.48;100.00
19831;BME280;10076;52.008;4.708;2022-11-14T04:30:02;101357.22;;;7.55;100.00
19831;BME280;10076;52.008;4.708;2022-11-14T04:32:27;101348.88;;;7.48;100.00
19831;BME280;10076;52.008;4.708;2022-11-14T04:34:53;101343.53;;;7.49;100.00
19831;BME280;10076;52.008;4.708;2022-11-14T04:37:18;101338.22;;;7.51;100.00
19831;BME280;10076;52.008;4.708;2022-11-14T04:39:43;101342.22;;;7.41;100.00
19831;BME280;10076;52.008;4.708;2022-11-14T04:42:09;101336.34;;;7.36;100.00
19831;BME280;10076;52.008;4.708;2022-11-14T04:44:34;101336.19;;;7.39;100.00
19831;BME280;10076;52.008;4.708;2022-11-14T04:46:59;101336.19;;;7.39;100.00
19831;BME280;10076;52.008;4.708;2022-11-14T04:49:24;101338.72;;;7.23;100.00
19831;BME280;10076;52.008;4.708;2022-11-14T04:51:50;101321.78;;;7.29;100.00
19831;BME280;10076;52.008;4.708;2022-11-14T04:54:15;101330.22;;;7.18;100.00
19831;BME280;10076;52.008;4.708;2022-11-14T04:56:40;101329.66;;;7.12;100.00
19831;BME280;10076;52.008;4.708;2022-11-14T04:59:06;101325.91;;;7.17;100.00
19831;BME280;10076;52.008;4.708;2022-11-14T05:01:31;101323.06;;;7.22;100.00
19831;BME280;10076;52.008;4.708;2022-11-14T05:03:56;101328.44;;;7.19;100.00
19831;BME280;10076;52.008;4.708;2022-11-14T05:06:22;101333.06;;;7.14;100.00
19831;BME280;10076;52.008;4.708;2022-11-14T05:08:47;101326.03;;;7.14;100.00
19831;BME280;10076;52.008;4.708;2022-11-14T05:11:17;101324.91;;;7.37;100.00
19831;BME280;10076;52.008;4.708;2022-11-14T05:13:43;101321.19;;;7.24;100.00
19831;BME280;10076;52.008;4.708;2022-11-14T05:16:08;101314.16;;;7.24;100.00
19831;BME280;10076;52.008;4.708;2022-11-14T05:18:34;101300.09;;;7.25;100.00
19831;BME280;10076;52.008;4.708;2022-11-14T05:21:00;101296.31;;;7.14;100.00
19831;BME280;10076;52.008;4.708;2022-11-14T05:23:26;101300.13;;;6.90;100.00
19831;BME280;10076;52.008;4.708;2022-11-14T05:26:18;101304.28;;;6.94;100.00
19831;BME280;10076;52.008;4.708;2022-11-14T05:28:43;101306.00;;;6.95;100.00
19831;BME280;10076;52.008;4.708;2022-11-14T05:31:10;101299.81;;;6.96;100.00
19831;BME280;10076;52.008;4.708;2022-11-14T05:33:42;101300.22;;;6.88;100.00
19831;BME280;10076;52.008;4.708;2022-11-14T05:36:10;101297.66;;;6.87;100.00
19831;BME280;10076;52.008;4.708;2022-11-14T05:38:36;101296.13;;;7.00;100.00
19831;BME280;10076;52.008;4.708;2022-11-14T05:41:06;101290.41;;;6.92;100.00
19831;BME280;10076;52.008;4.708;2022-11-14T05:43:31;101284.53;;;6.87;100.00
19831;BME280;10076;52.008;4.708;2022-11-14T05:46:01;101292.53;;;6.84;100.00
19831;BME280;10076;52.008;4.708;2022-11-14T05:48:27;101286.50;;;6.82;100.00
19831;BME280;10076;52.008;4.708;2022-11-14T05:50:54;101291.22;;;6.76;100.00
19831;BME280;10076;52.008;4.708;2022-11-14T05:53:19;101287.66;;;6.77;100.00
19831;BME280;10076;52.008;4.708;2022-11-14T05:55:44;101291.50;;;6.70;100.00
19831;BME280;10076;52.008;4.708;2022-11-14T05:58:10;101293.47;;;6.83;100.00
19831;BME280;10076;52.008;4.708;2022-11-14T06:00:35;101293.22;;;6.71;100.00
19831;BME280;10076;52.008;4.708;2022-11-14T06:03:00;101286.13;;;6.73;100.00
19831;BME280;10076;52.008;4.708;2022-11-14T06:05:26;101294.88;;;6.90;100.00
19831;BME280;10076;52.008;4.708;2022-11-14T06:07:55;101289.00;;;6.85;100.00
19831;BME280;10076;52.008;4.708;2022-11-14T06:10:21;101281.63;;;7.10;100.00
19831;BME280;10076;52.008;4.708;2022-11-14T06:12:46;101279.53;;;6.99;100.00
19831;BME280;10076;52.008;4.708;2022-11-14T06:15:11;101286.06;;;6.91;100.00
19831;BME280;10076;52.008;4.708;2022-11-14T06:17:37;101285.22;;;6.90;100.00
19831;BME280;10076;52.008;4.708;2022-11-14T06:20:02;101285.59;;;6.83;100.00
19831;BME280;10076;52.008;4.708;2022-11-14T06:22:28;101286.78;;;6.76;100.00
19831;BME280;10076;52.008;4.708;2022-11-14T06:24:53;101288.50;;;6.77;100.00
19831;BME280;10076;52.008;4.708;2022-11-14T06:27:18;101291.72;;;6.65;100.00
19831;BME280;10076;52.008;4.708;2022-11-14T06:29:43;101290.88;;;7.00;100.00
19831;BME280;10076;52.008;4.708;2022-11-14T06:32:09;101290.25;;;6.60;100.00
19831;BME280;10076;52.008;4.708;2022-11-14T06:34:34;101288.47;;;6.60;100.00
19831;BME280;10076;52.008;4.708;2022-11-14T06:36:59;101281.16;;;6.48;100.00
19831;BME280;10076;52.008;4.708;2022-11-14T06:39:24;101288.66;;;6.74;100.00
19831;BME280;10076;52.008;4.708;2022-11-14T06:41:50;101290.09;;;6.81;100.00
19831;BME280;10076;52.008;4.708;2022-11-14T06:44:15;101290.50;;;6.72;100.00
19831;BME280;10076;52.008;4.708;2022-11-14T06:46:42;101289.59;;;6.73;100.00
19831;BME280;10076;52.008;4.708;2022-11-14T06:49:07;101293.03;;;6.74;100.00
19831;BME280;10076;52.008;4.708;2022-11-14T06:51:32;101296.97;;;6.65;100.00
19831;BME280;10076;52.008;4.708;2022-11-14T06:53:57;101287.81;;;6.55;100.00
19831;BME280;10076;52.008;4.708;2022-11-14T06:56:23;101298.66;;;6.66;100.00
19831;BME280;10076;52.008;4.708;2022-11-14T06:58:49;101294.75;;;6.75;100.00
19831;BME280;10076;52.008;4.708;2022-11-14T07:01:19;101301.22;;;6.68;100.00
19831;BME280;10076;52.008;4.708;2022-11-14T07:03:46;101298.03;;;6.61;100.00
19831;BME280;10076;52.008;4.708;2022-11-14T07:06:15;101306.28;;;6.54;100.00
19831;BME280;10076;52.008;4.708;2022-11-14T07:08:41;101301.72;;;6.57;100.00
19831;BME280;10076;52.008;4.708;2022-11-14T07:11:12;101306.06;;;6.58;100.00
19831;BME280;10076;52.008;4.708;2022-11-14T07:13:47;101302.59;;;6.39;100.00
19831;BME280;10076;52.008;4.708;2022-11-14T07:16:13;101294.69;;;6.58;100.00
19831;BME280;10076;52.008;4.708;2022-11-14T07:18:38;101291.81;;;6.45;100.00
19831;BME280;10076;52.008;4.708;2022-11-14T07:21:04;101288.28;;;6.46;100.00
19831;BME280;10076;52.008;4.708;2022-11-14T07:23:32;101283.50;;;6.54;100.00
19831;BME280;10076;52.008;4.708;2022-11-14T07:26:02;101282.78;;;6.51;100.00
19831;BME280;10076;52.008;4.708;2022-11-14T07:28:28;101281.66;;;6.56;100.00
19831;BME280;10076;52.008;4.708;2022-11-14T07:30:54;101273.63;;;6.59;100.00
19831;BME280;10076;52.008;4.708;2022-11-14T07:33:19;101278.41;;;6.51;100.00
19831;BME280;10076;52.008;4.708;2022-11-14T07:35:44;101285.47;;;6.68;100.00
19831;BME280;10076;52.008;4.708;2022-11-14T07:38:09;101281.47;;;6.61;100.00
19831;BME280;10076;52.008;4.708;2022-11-14T07:40:35;101284.03;;;6.44;100.00
19831;BME280;10076;52.008;4.708;2022-11-14T07:43:01;101281.50;;;6.59;100.00
19831;BME280;10076;52.008;4.708;2022-11-14T07:45:27;101282.75;;;6.52;100.00
19831;BME280;10076;52.008;4.708;2022-11-14T07:47:58;101278.25;;;6.73;100.00
19831;BME280;10076;52.008;4.708;2022-11-14T07:50:25;101284.75;;;6.83;100.00
19831;BME280;10076;52.008;4.708;2022-11-14T07:52:53;101283.13;;;6.80;100.00
19831;BME280;10076;52.008;4.708;2022-11-14T07:55:19;101280.84;;;6.91;100.00
19831;BME280;10076;52.008;4.708;2022-11-14T07:57:45;101277.59;;;6.86;100.00
19831;BME280;10076;52.008;4.708;2022-11-14T08:00:11;101283.25;;;6.77;100.00
19831;BME280;10076;52.008;4.708;2022-11-14T08:02:37;101279.59;;;6.81;100.00
19831;BME280;10076;52.008;4.708;2022-11-14T08:05:02;101278.69;;;6.99;100.00
19831;BME280;10076;52.008;4.708;2022-11-14T08:07:28;101276.50;;;6.90;100.00
19831;BME280;10076;52.008;4.708;2022-11-14T08:09:53;101268.94;;;7.01;100.00
19831;BME280;10076;52.008;4.708;2022-11-14T08:12:18;101268.03;;;7.02;100.00
19831;BME280;10076;52.008;4.708;2022-11-14T08:14:44;101259.69;;;7.11;100.00
19831;BME280;10076;52.008;4.708;2022-11-14T08:17:09;101264.50;;;7.20;100.00
19831;BME280;10076;52.008;4.708;2022-11-14T08:19:34;101268.03;;;7.02;100.00
19831;BME280;10076;52.008;4.708;2022-11-14T08:21:59;101262.78;;;7.02;100.00
19831;BME280;10076;52.008;4.708;2022-11-14T08:24:25;101264.19;;;7.43;100.00
19831;BME280;10076;52.008;4.708;2022-11-14T08:26:50;101256.00;;;7.32;100.00
19831;BME280;10076;52.008;4.708;2022-11-14T08:29:15;101255.06;;;7.50;100.00
19831;BME280;10076;52.008;4.708;2022-11-14T08:31:41;101256.66;;;8.01;100.00
19831;BME280;10076;52.008;4.708;2022-11-14T08:34:06;101255.69;;;8.81;100.00
19831;BME280;10076;52.008;4.708;2022-11-14T08:36:31;101245.13;;;9.55;100.00
19831;BME280;10076;52.008;4.708;2022-11-14T08:38:56;101244.81;;;10.30;100.00
19831;BME280;10076;52.008;4.708;2022-11-14T08:41:22;101239.59;;;10.83;100.00
19831;BME280;10076;52.008;4.708;2022-11-14T08:43:47;101237.69;;;11.62;100.00
19831;BME280;10076;52.008;4.708;2022-11-14T08:46:12;101234.19;;;12.47;100.00
19831;BME280;10076;52.008;4.708;2022-11-14T08:48:37;101227.41;;;13.25;100.00
19831;BME280;10076;52.008;4.708;2022-11-14T08:51:04;101227.53;;;13.24;100.00
19831;BME280;10076;52.008;4.708;2022-11-14T08:53:30;101219.22;;;13.28;100.00
19831;BME280;10076;52.008;4.708;2022-11-14T08:55:55;101216.13;;;13.45;100.00
19831;BME280;10076;52.008;4.708;2022-11-14T08:58:20;101214.94;;;13.15;100.00
19831;BME280;10076;52.008;4.708;2022-11-14T09:00:46;101225.13;;;12.98;100.00
19831;BME280;10076;52.008;4.708;2022-11-14T09:03:11;101221.00;;;13.28;100.00
19831;BME280;10076;52.008;4.708;2022-11-14T09:05:41;101216.13;;;13.45;100.00
19831;BME280;10076;52.008;4.708;2022-11-14T09:08:06;101214.38;;;13.22;100.00
19831;BME280;10076;52.008;4.708;2022-11-14T09:10:32;101212.41;;;13.13;100.00
19831;BME280;10076;52.008;4.708;2022-11-14T09:12:58;101216.13;;;13.11;100.00
19831;BME280;10076;52.008;4.708;2022-11-14T09:15:24;101209.44;;;12.95;100.00
19831;BME280;10076;52.008;4.708;2022-11-14T09:17:54;101203.34;;;13.39;100.00
19831;BME280;10076;52.008;4.708;2022-11-14T09:20:21;101207.53;;;13.31;100.00
19831;BME280;10076;52.008;4.708;2022-11-14T09:22:46;101208.59;;;12.94;100.00
19831;BME280;10076;52.008;4.708;2022-11-14T09:25:11;101207.72;;;12.70;100.00
19831;BME280;10076;52.008;4.708;2022-11-14T09:27:37;101216.56;;;12.58;100.00
19831;BME280;10076;52.008;4.708;2022-11-14T09:30:02;101203.88;;;12.87;100.00
19831;BME280;10076;52.008;4.708;2022-11-14T09:32:28;101206.72;;;12.60;100.00
19831;BME280;10076;52.008;4.708;2022-11-14T09:34:53;101212.72;;;12.39;100.00
19831;BME280;10076;52.008;4.708;2022-11-14T09:37:18;101202.34;;;12.59;100.00
19831;BME280;10076;52.008;4.708;2022-11-14T09:39:43;101205.78;;;12.49;100.00
19831;BME280;10076;52.008;4.708;2022-11-14T09:42:35;101204.19;;;12.46;100.00
19831;BME280;10076;52.008;4.708;2022-11-14T09:45:12;101199.84;;;12.45;100.00
19831;BME280;10076;52.008;4.708;2022-11-14T09:47:44;101192.38;;;12.63;100.00
19831;BME280;10076;52.008;4.708;2022-11-14T09:50:14;101202.84;;;13.34;100.00
19831;BME280;10076;52.008;4.708;2022-11-14T09:52:42;101204.63;;;14.23;100.00
19831;BME280;10076;52.008;4.708;2022-11-14T09:55:18;101204.75;;;15.37;100.00
19831;BME280;10076;52.008;4.708;2022-11-14T09:57:44;101201.31;;;16.46;100.00
19831;BME280;10076;52.008;4.708;2022-11-14T10:00:20;101196.16;;;17.11;100.00
19831;BME280;10076;52.008;4.708;2022-11-14T10:05:41;101198.00;;;18.39;100.00
19831;BME280;10076;52.008;4.708;2022-11-14T10:22:20;101189.81;;;24.16;68.34
19831;BME280;10076;52.008;4.708;2022-11-14T10:25:11;101188.22;;;24.64;64.94
19831;BME280;10076;52.008;4.708;2022-11-14T10:27:59;101183.56;;;25.29;60.82
19831;BME280;10076;52.008;4.708;2022-11-14T10:30:43;101194.44;;;26.17;59.71
19831;BME280;10076;52.008;4.708;2022-11-14T10:36:04;101197.91;;;26.05;56.24
19831;BME280;10076;52.008;4.708;2022-11-14T10:38:47;101192.13;;;26.08;56.74
19831;BME280;10076;52.008;4.708;2022-11-14T10:41:16;101196.56;;;27.22;54.33
19831;BME280;10076;52.008;4.708;2022-11-14T10:43:47;101195.38;;;27.69;51.57
19831;BME280;10076;52.008;4.708;2022-11-14T10:46:19;101191.91;;;28.45;51.97
19831;BME280;10076;52.008;4.708;2022-11-14T10:48:48;101183.44;;;28.72;49.28
19831;BME280;10076;52.008;4.708;2022-11-14T10:51:23;101180.13;;;29.07;48.83
19831;BME280;10076;52.008;4.708;2022-11-14T10:53:58;101174.03;;;29.67;47.18
19831;BME280;10076;52.008;4.708;2022-11-14T10:56:25;101176.00;;;30.44;45.38
19831;BME280;10076;52.008;4.708;2022-11-14T10:58:50;101164.81;;;30.82;44.61
19831;BME280;10076;52.008;4.708;2022-11-14T11:01:45;101155.38;;;30.66;44.42
19831;BME280;10076;52.008;4.708;2022-11-14T11:04:27;101163.28;;;31.55;43.02
19831;BME280;10076;52.008;4.708;2022-11-14T11:09:30;101159.16;;;31.87;41.01
19831;BME280;10076;52.008;4.708;2022-11-14T11:12:16;101157.13;;;31.71;40.36
19831;BME280;10076;52.008;4.708;2022-11-14T11:14:47;101149.16;;;31.58;41.02
19831;BME280;10076;52.008;4.708;2022-11-14T11:17:15;101143.56;;;32.22;41.16
19831;BME280;10076;52.008;4.708;2022-11-14T11:19:43;101137.84;;;32.24;39.60
19831;BME280;10076;52.008;4.708;2022-11-14T11:22:36;101140.59;;;31.78;40.14
19831;BME280;10076;52.008;4.708;2022-11-14T11:25:21;101134.88;;;32.25;39.21
19831;BME280;10076;52.008;4.708;2022-11-14T11:28:02;101135.22;;;32.96;38.57
19831;BME280;10076;52.008;4.708;2022-11-14T11:30:27;101134.78;;;33.15;37.92
19831;BME280;10076;52.008;4.708;2022-11-14T11:32:53;101150.41;;;33.47;37.44
19831;BME280;10076;52.008;4.708;2022-11-14T11:35:18;101143.63;;;33.33;38.76
19831;BME280;10076;52.008;4.708;2022-11-14T11:37:48;101141.63;;;33.62;37.17
19831;BME280;10076;52.008;4.708;2022-11-14T11:40:21;101144.59;;;34.09;36.84
19831;BME280;10076;52.008;4.708;2022-11-14T11:45:25;101135.31;;;33.45;37.27
19831;BME280;10076;52.008;4.708;2022-11-14T11:47:56;101138.69;;;34.01;36.61
19831;BME280;10076;52.008;4.708;2022-11-14T11:50:22;101134.94;;;34.49;35.31
19831;BME280;10076;52.008;4.708;2022-11-14T11:55:44;101113.63;;;32.83;37.60
19831;BME280;10076;52.008;4.708;2022-11-14T12:00:45;101104.00;;;33.24;37.26
19831;BME280;10076;52.008;4.708;2022-11-14T12:03:12;101104.53;;;33.54;36.34
19831;BME280;10076;52.008;4.708;2022-11-14T12:08:39;101113.09;;;34.33;36.04
19831;BME280;10076;52.008;4.708;2022-11-14T12:11:13;101112.25;;;33.41;36.10
19831;BME280;10076;52.008;4.708;2022-11-14T12:13:56;101102.63;;;32.94;37.45
19831;BME280;10076;52.008;4.708;2022-11-14T12:16:45;101103.06;;;31.51;37.03
19831;BME280;10076;52.008;4.708;2022-11-14T12:22:19;101093.91;;;32.81;37.47
19831;BME280;10076;52.008;4.708;2022-11-14T12:28:16;101097.53;;;32.70;36.85
19831;BME280;10076;52.008;4.708;2022-11-14T12:30:50;101089.66;;;32.06;37.80
19831;BME280;10076;52.008;4.708;2022-11-14T12:33:26;101092.88;;;31.57;38.25
19831;BME280;10076;52.008;4.708;2022-11-14T12:36:05;101082.81;;;31.06;38.09
19831;BME280;10076;52.008;4.708;2022-11-14T12:38:39;101083.47;;;30.90;38.63
19831;BME280;10076;52.008;4.708;2022-11-14T12:41:07;101071.69;;;28.86;41.31
19831;BME280;10076;52.008;4.708;2022-11-14T12:43:37;101076.94;;;28.44;43.71
19831;BME280;10076;52.008;4.708;2022-11-14T12:48:34;101072.97;;;29.33;44.78
19831;BME280;10076;52.008;4.708;2022-11-14T12:51:01;101066.66;;;30.16;43.40
19831;BME280;10076;52.008;4.708;2022-11-14T12:56:21;101061.59;;;31.08;39.66
19831;BME280;10076;52.008;4.708;2022-11-14T12:59:13;101052.09;;;31.22;40.34
19831;BME280;10076;52.008;4.708;2022-11-14T13:12:34;101037.69;;;33.22;38.47
19831;BME280;10076;52.008;4.708;2022-11-14T13:15:27;101039.44;;;33.61;36.66
19831;BME280;10076;52.008;4.708;2022-11-14T13:18:23;101036.88;;;33.38;37.00
19831;BME280;10076;52.008;4.708;2022-11-14T13:24:03;101037.53;;;33.83;36.82
19831;BME280;10076;52.008;4.708;2022-11-14T13:28:54;101037.00;;;33.48;37.13
19831;BME280;10076;52.008;4.708;2022-11-14T13:31:22;101032.97;;;33.01;37.33
19831;BME280;10076;52.008;4.708;2022-11-14T13:33:49;101038.97;;;32.43;37.97
19831;BME280;10076;52.008;4.708;2022-11-14T13:47:42;101020.47;;;30.91;40.49
19831;BME280;10076;52.008;4.708;2022-11-14T13:52:43;101002.50;;;29.85;40.67
19831;BME280;10076;52.008;4.708;2022-11-14T13:58:16;100995.03;;;30.68;41.00
19831;BME280;10076;52.008;4.708;2022-11-14T14:01:00;100990.22;;;30.82;40.96
19831;BME280;10076;52.008;4.708;2022-11-14T14:09:02;100976.78;;;29.63;41.87
19831;BME280;10076;52.008;4.708;2022-11-14T14:17:08;100971.16;;;29.22;42.42
19831;BME280;10076;52.008;4.708;2022-11-14T14:19:55;100957.75;;;29.63;42.05
19831;BME280;10076;52.008;4.708;2022-11-14T14:22:40;100950.44;;;29.21;42.31
19831;BME280;10076;52.008;4.708;2022-11-14T14:27:51;100957.31;;;28.75;43.25
19831;BME280;10076;52.008;4.708;2022-11-14T14:30:20;100964.94;;;27.48;45.18